sensor_id;sensor_type;location;lat;lon;timestamp;P1;durP1;ratioP1;P2;durP2;ratioP2
9304;SDS011;4690;52.422;13.486;2023-06-24T00:05:22;23.75;;;18.42;;
9304;SDS011;4690;52.422;13.486;2023-06-24T00:07:48;22.70;;;16.73;;
9304;SDS011;4690;52.422;13.486;2023-06-24T00:10:14;25.10;;;17.13;;
9304;SDS011;4690;52.422;13.486;2023-06-24T00:12:40;19.02;;;16.27;;
9304;SDS011;4690;52.422;13.486;2023-06-24T00:15:07;21.83;;;17.02;;
9304;SDS011;4690;52.422;13.486;2023-06-24T00:17:37;22.65;;;17.25;;
9304;SDS011;4690;52.422;13.486;2023-06-24T00:20:03;22.48;;;16.35;;
9304;SDS011;4690;52.422;13.486;2023-06-24T00:22:31;23.25;;;17.15;;
9304;SDS011;4690;52.422;13.486;2023-06-24T00:24:56;24.45;;;16.75;;
9304;SDS011;4690;52.422;13.486;2023-06-24T00:27:22;31.08;;;17.92;;
9304;SDS011;4690;52.422;13.486;2023-06-24T00:29:48;27.80;;;17.35;;
9304;SDS011;4690;52.422;13.486;2023-06-24T00:32:13;26.90;;;17.63;;
9304;SDS011;4690;52.422;13.486;2023-06-24T00:34:39;37.00;;;20.95;;
9304;SDS011;4690;52.422;13.486;2023-06-24T00:37:08;24.05;;;18.00;;
9304;SDS011;4690;52.422;13.486;2023-06-24T00:39:35;32.28;;;19.63;;
9304;SDS011;4690;52.422;13.486;2023-06-24T00:42:00;23.20;;;17.20;;
9304;SDS011;4690;52.422;13.486;2023-06-24T00:44:26;32.08;;;20.10;;
9304;SDS011;4690;52.422;13.486;2023-06-24T00:46:53;29.63;;;20.17;;
9304;SDS011;4690;52.422;13.486;2023-06-24T00:49:19;26.92;;;19.35;;
9304;SDS011;4690;52.422;13.486;2023-06-24T00:51:45;34.17;;;22.27;;
9304;SDS011;4690;52.422;13.486;2023-06-24T00:54:16;31.67;;;21.42;;
9304;SDS011;4690;52.422;13.486;2023-06-24T00:56:42;29.30;;;19.27;;
9304;SDS011;4690;52.422;13.486;2023-06-24T00:59:08;26.02;;;19.23;;
9304;SDS011;4690;52.422;13.486;2023-06-24T01:01:38;34.72;;;21.25;;
9304;SDS011;4690;52.422;13.486;2023-06-24T01:04:06;31.45;;;21.63;;
9304;SDS011;4690;52.422;13.486;2023-06-24T01:06:35;34.25;;;21.38;;
9304;SDS011;4690;52.422;13.486;2023-06-24T01:09:01;36.60;;;23.30;;
9304;SDS011;4690;52.422;13.486;2023-06-24T01:11:28;32.42;;;22.08;;
9304;SDS011;4690;52.422;13.486;2023-06-24T01:13:55;45.65;;;24.58;;
9304;SDS011;4690;52.422;13.486;2023-06-24T01:16:25;30.40;;;21.55;;
9304;SDS011;4690;52.422;13.486;2023-06-24T01:18:59;42.45;;;24.90;;
9304;SDS011;4690;52.422;13.486;2023-06-24T01:22:04;56.33;;;29.95;;
9304;SDS011;4690;52.422;13.486;2023-06-24T01:27:57;47.90;;;27.27;;
9304;SDS011;4690;52.422;13.486;2023-06-24T01:31:25;63.67;;;31.20;;
9304;SDS011;4690;52.422;13.486;2023-06-24T01:37:08;35.08;;;24.52;;
9304;SDS011;4690;52.422;13.486;2023-06-24T01:42:39;41.70;;;26.95;;
9304;SDS011;4690;52.422;13.486;2023-06-24T01:45:09;36.03;;;24.27;;
9304;SDS011;4690;52.422;13.486;2023-06-24T01:47:46;50.40;;;27.88;;
9304;SDS011;4690;52.422;13.486;2023-06-24T01:50:19;40.35;;;25.00;;
9304;SDS011;4690;52.422;13.486;2023-06-24T01:52:48;47.08;;;27.67;;
9304;SDS011;4690;52.422;13.486;2023-06-24T01:55:18;49.35;;;28.58;;
9304;SDS011;4690;52.422;13.486;2023-06-24T01:57:46;42.72;;;26.77;;
9304;SDS011;4690;52.422;13.486;2023-06-24T02:00:16;25.60;;;21.80;;
9304;SDS011;4690;52.422;13.486;2023-06-24T02:02:43;41.72;;;26.13;;
9304;SDS011;4690;52.422;13.486;2023-06-24T02:05:10;61.45;;;32.63;;
9304;SDS011;4690;52.422;13.486;2023-06-24T02:07:39;39.33;;;25.90;;
9304;SDS011;4690;52.422;13.486;2023-06-24T02:10:08;51.55;;;28.73;;
9304;SDS011;4690;52.422;13.486;2023-06-24T02:12:34;82.82;;;34.90;;
9304;SDS011;4690;52.422;13.486;2023-06-24T02:15:02;44.17;;;27.48;;
9304;SDS011;4690;52.422;13.486;2023-06-24T02:17:31;60.97;;;28.77;;
9304;SDS011;4690;52.422;13.486;2023-06-24T02:19:58;43.28;;;27.50;;
9304;SDS011;4690;52.422;13.486;2023-06-24T02:22:26;46.22;;;30.35;;
9304;SDS011;4690;52.422;13.486;2023-06-24T02:24:54;60.47;;;30.27;;
9304;SDS011;4690;52.422;13.486;2023-06-24T02:27:21;66.25;;;32.00;;
9304;SDS011;4690;52.422;13.486;2023-06-24T02:29:48;32.67;;;24.95;;
9304;SDS011;4690;52.422;13.486;2023-06-24T02:32:16;52.75;;;28.92;;
9304;SDS011;4690;52.422;13.486;2023-06-24T02:34:42;56.47;;;28.35;;
9304;SDS011;4690;52.422;13.486;2023-06-24T02:37:08;39.78;;;24.73;;
9304;SDS011;4690;52.422;13.486;2023-06-24T02:39:34;38.10;;;24.10;;
9304;SDS011;4690;52.422;13.486;2023-06-24T02:42:03;44.72;;;25.58;;
9304;SDS011;4690;52.422;13.486;2023-06-24T02:44:28;46.97;;;28.00;;
9304;SDS011;4690;52.422;13.486;2023-06-24T02:46:54;47.33;;;25.95;;
9304;SDS011;4690;52.422;13.486;2023-06-24T02:49:21;44.03;;;24.45;;
9304;SDS011;4690;52.422;13.486;2023-06-24T02:51:48;25.55;;;20.63;;
9304;SDS011;4690;52.422;13.486;2023-06-24T02:54:14;32.30;;;22.67;;
9304;SDS011;4690;52.422;13.486;2023-06-24T02:56:41;33.67;;;22.63;;
9304;SDS011;4690;52.422;13.486;2023-06-24T02:59:09;33.83;;;20.77;;
9304;SDS011;4690;52.422;13.486;2023-06-24T03:01:35;27.17;;;20.15;;
9304;SDS011;4690;52.422;13.486;2023-06-24T03:04:04;26.90;;;20.00;;
9304;SDS011;4690;52.422;13.486;2023-06-24T03:06:31;27.70;;;19.80;;
9304;SDS011;4690;52.422;13.486;2023-06-24T03:08:58;45.67;;;23.90;;
9304;SDS011;4690;52.422;13.486;2023-06-24T03:11:25;48.20;;;24.20;;
9304;SDS011;4690;52.422;13.486;2023-06-24T03:13:53;42.03;;;23.67;;
9304;SDS011;4690;52.422;13.486;2023-06-24T03:16:18;44.30;;;24.35;;
9304;SDS011;4690;52.422;13.486;2023-06-24T03:18:45;21.80;;;18.20;;
9304;SDS011;4690;52.422;13.486;2023-06-24T03:21:10;28.33;;;19.27;;
9304;SDS011;4690;52.422;13.486;2023-06-24T03:23:36;43.75;;;23.08;;
9304;SDS011;4690;52.422;13.486;2023-06-24T03:26:02;33.85;;;22.60;;
9304;SDS011;4690;52.422;13.486;2023-06-24T03:28:29;23.33;;;17.77;;
9304;SDS011;4690;52.422;13.486;2023-06-24T03:30:56;19.63;;;17.60;;
9304;SDS011;4690;52.422;13.486;2023-06-24T03:33:22;38.15;;;20.92;;
9304;SDS011;4690;52.422;13.486;2023-06-24T03:35:49;31.65;;;19.50;;
9304;SDS011;4690;52.422;13.486;2023-06-24T03:38:16;29.98;;;19.02;;
9304;SDS011;4690;52.422;13.486;2023-06-24T03:40:42;46.22;;;23.75;;
9304;SDS011;4690;52.422;13.486;2023-06-24T03:43:08;23.15;;;17.52;;
9304;SDS011;4690;52.422;13.486;2023-06-24T03:45:35;24.40;;;17.60;;
9304;SDS011;4690;52.422;13.486;2023-06-24T03:48:00;31.35;;;18.65;;
9304;SDS011;4690;52.422;13.486;2023-06-24T03:50:26;30.05;;;19.20;;
9304;SDS011;4690;52.422;13.486;2023-06-24T03:52:52;33.28;;;19.63;;
9304;SDS011;4690;52.422;13.486;2023-06-24T03:55:18;31.45;;;21.15;;
9304;SDS011;4690;52.422;13.486;2023-06-24T03:57:44;22.50;;;17.85;;
9304;SDS011;4690;52.422;13.486;2023-06-24T04:00:09;26.55;;;18.20;;
9304;SDS011;4690;52.422;13.486;2023-06-24T04:02:42;35.05;;;21.33;;
9304;SDS011;4690;52.422;13.486;2023-06-24T04:05:09;26.77;;;18.42;;
9304;SDS011;4690;52.422;13.486;2023-06-24T04:07:34;40.92;;;22.15;;
9304;SDS011;4690;52.422;13.486;2023-06-24T04:10:01;40.08;;;21.58;;
9304;SDS011;4690;52.422;13.486;2023-06-24T04:12:33;35.80;;;19.85;;
9304;SDS011;4690;52.422;13.486;2023-06-24T04:15:02;35.90;;;22.05;;
9304;SDS011;4690;52.422;13.486;2023-06-24T04:17:30;22.48;;;16.70;;
9304;SDS011;4690;52.422;13.486;2023-06-24T04:19:56;22.77;;;17.55;;
9304;SDS011;4690;52.422;13.486;2023-06-24T04:22:23;23.67;;;17.23;;
9304;SDS011;4690;52.422;13.486;2023-06-24T04:24:50;23.95;;;17.58;;
9304;SDS011;4690;52.422;13.486;2023-06-24T04:27:16;25.35;;;17.33;;
9304;SDS011;4690;52.422;13.486;2023-06-24T04:29:42;36.38;;;21.88;;
9304;SDS011;4690;52.422;13.486;2023-06-24T04:32:07;21.33;;;16.98;;
9304;SDS011;4690;52.422;13.486;2023-06-24T04:34:33;38.15;;;20.23;;
9304;SDS011;4690;52.422;13.486;2023-06-24T04:36:59;21.33;;;16.45;;
9304;SDS011;4690;52.422;13.486;2023-06-24T04:39:25;36.05;;;19.67;;
9304;SDS011;4690;52.422;13.486;2023-06-24T04:41:50;27.20;;;17.02;;
9304;SDS011;4690;52.422;13.486;2023-06-24T04:44:16;31.02;;;19.67;;
9304;SDS011;4690;52.422;13.486;2023-06-24T04:46:42;38.20;;;21.00;;
9304;SDS011;4690;52.422;13.486;2023-06-24T04:49:08;25.63;;;18.23;;
9304;SDS011;4690;52.422;13.486;2023-06-24T04:51:33;22.05;;;17.33;;
9304;SDS011;4690;52.422;13.486;2023-06-24T04:54:01;19.33;;;15.05;;
9304;SDS011;4690;52.422;13.486;2023-06-24T04:56:28;20.00;;;15.38;;
9304;SDS011;4690;52.422;13.486;2023-06-24T04:58:54;15.88;;;14.27;;
9304;SDS011;4690;52.422;13.486;2023-06-24T05:01:20;17.05;;;15.20;;
9304;SDS011;4690;52.422;13.486;2023-06-24T05:03:47;18.38;;;14.57;;
9304;SDS011;4690;52.422;13.486;2023-06-24T05:06:13;18.92;;;15.50;;
9304;SDS011;4690;52.422;13.486;2023-06-24T05:08:38;16.20;;;14.57;;
9304;SDS011;4690;52.422;13.486;2023-06-24T05:11:04;17.65;;;14.65;;
9304;SDS011;4690;52.422;13.486;2023-06-24T05:13:30;15.90;;;14.20;;
9304;SDS011;4690;52.422;13.486;2023-06-24T05:15:56;15.20;;;13.55;;
9304;SDS011;4690;52.422;13.486;2023-06-24T05:18:22;18.58;;;14.68;;
9304;SDS011;4690;52.422;13.486;2023-06-24T05:20:47;19.05;;;14.68;;
9304;SDS011;4690;52.422;13.486;2023-06-24T05:23:13;15.00;;;13.50;;
9304;SDS011;4690;52.422;13.486;2023-06-24T05:25:39;19.42;;;15.27;;
9304;SDS011;4690;52.422;13.486;2023-06-24T05:28:04;22.55;;;16.50;;
9304;SDS011;4690;52.422;13.486;2023-06-24T05:30:30;14.80;;;13.30;;
9304;SDS011;4690;52.422;13.486;2023-06-24T05:32:56;16.48;;;14.35;;
9304;SDS011;4690;52.422;13.486;2023-06-24T05:35:22;19.50;;;15.35;;
9304;SDS011;4690;52.422;13.486;2023-06-24T05:37:47;17.67;;;14.50;;
9304;SDS011;4690;52.422;13.486;2023-06-24T05:40:13;24.38;;;16.08;;
9304;SDS011;4690;52.422;13.486;2023-06-24T05:42:39;15.85;;;13.77;;
9304;SDS011;4690;52.422;13.486;2023-06-24T05:45:05;16.80;;;13.90;;
9304;SDS011;4690;52.422;13.486;2023-06-24T05:47:32;15.85;;;13.85;;
9304;SDS011;4690;52.422;13.486;2023-06-24T05:49:58;18.80;;;14.60;;
9304;SDS011;4690;52.422;13.486;2023-06-24T05:52:23;14.63;;;13.10;;
9304;SDS011;4690;52.422;13.486;2023-06-24T05:54:50;19.67;;;14.25;;
9304;SDS011;4690;52.422;13.486;2023-06-24T05:57:15;14.57;;;12.30;;
9304;SDS011;4690;52.422;13.486;2023-06-24T05:59:41;19.40;;;13.15;;
9304;SDS011;4690;52.422;13.486;2023-06-24T06:02:07;14.95;;;13.10;;
9304;SDS011;4690;52.422;13.486;2023-06-24T06:04:33;14.50;;;13.00;;
9304;SDS011;4690;52.422;13.486;2023-06-24T06:06:58;20.58;;;14.63;;
9304;SDS011;4690;52.422;13.486;2023-06-24T06:09:24;17.75;;;14.55;;
9304;SDS011;4690;52.422;13.486;2023-06-24T06:11:50;16.45;;;13.25;;
9304;SDS011;4690;52.422;13.486;2023-06-24T06:14:16;13.40;;;11.52;;
9304;SDS011;4690;52.422;13.486;2023-06-24T06:16:41;18.08;;;12.27;;
9304;SDS011;4690;52.422;13.486;2023-06-24T06:19:07;16.95;;;12.60;;
9304;SDS011;4690;52.422;13.486;2023-06-24T06:21:33;15.65;;;12.07;;
9304;SDS011;4690;52.422;13.486;2023-06-24T06:24:02;10.82;;;9.80;;
9304;SDS011;4690;52.422;13.486;2023-06-24T06:26:28;15.30;;;11.52;;
9304;SDS011;4690;52.422;13.486;2023-06-24T06:28:53;13.43;;;12.18;;
9304;SDS011;4690;52.422;13.486;2023-06-24T06:31:19;13.70;;;11.88;;
9304;SDS011;4690;52.422;13.486;2023-06-24T06:33:46;13.75;;;11.18;;
9304;SDS011;4690;52.422;13.486;2023-06-24T06:36:12;14.88;;;11.77;;
9304;SDS011;4690;52.422;13.486;2023-06-24T06:38:39;14.05;;;11.57;;
9304;SDS011;4690;52.422;13.486;2023-06-24T06:41:05;15.05;;;11.80;;
9304;SDS011;4690;52.422;13.486;2023-06-24T06:43:32;15.68;;;11.65;;
9304;SDS011;4690;52.422;13.486;2023-06-24T06:45:58;11.82;;;10.73;;
9304;SDS011;4690;52.422;13.486;2023-06-24T06:48:24;13.90;;;11.18;;
9304;SDS011;4690;52.422;13.486;2023-06-24T06:50:50;14.18;;;10.93;;
9304;SDS011;4690;52.422;13.486;2023-06-24T06:53:18;12.95;;;11.00;;
9304;SDS011;4690;52.422;13.486;2023-06-24T06:55:44;10.38;;;9.38;;
9304;SDS011;4690;52.422;13.486;2023-06-24T06:58:10;14.15;;;11.02;;
9304;SDS011;4690;52.422;13.486;2023-06-24T07:00:36;11.32;;;10.18;;
9304;SDS011;4690;52.422;13.486;2023-06-24T07:03:01;11.38;;;10.40;;
9304;SDS011;4690;52.422;13.486;2023-06-24T07:05:28;12.13;;;10.90;;
9304;SDS011;4690;52.422;13.486;2023-06-24T07:07:54;12.40;;;9.98;;
9304;SDS011;4690;52.422;13.486;2023-06-24T07:10:20;13.27;;;9.52;;
9304;SDS011;4690;52.422;13.486;2023-06-24T07:12:46;11.15;;;9.85;;
9304;SDS011;4690;52.422;13.486;2023-06-24T07:15:12;11.23;;;9.63;;
9304;SDS011;4690;52.422;13.486;2023-06-24T07:17:38;10.57;;;9.48;;
9304;SDS011;4690;52.422;13.486;2023-06-24T07:20:05;13.20;;;8.95;;
9304;SDS011;4690;52.422;13.486;2023-06-24T07:22:31;9.48;;;8.57;;
9304;SDS011;4690;52.422;13.486;2023-06-24T07:24:57;13.70;;;9.20;;
9304;SDS011;4690;52.422;13.486;2023-06-24T07:27:23;9.57;;;8.65;;
9304;SDS011;4690;52.422;13.486;2023-06-24T07:29:49;12.57;;;9.55;;
9304;SDS011;4690;52.422;13.486;2023-06-24T07:32:14;11.15;;;10.05;;
9304;SDS011;4690;52.422;13.486;2023-06-24T07:34:40;9.98;;;8.85;;
9304;SDS011;4690;52.422;13.486;2023-06-24T07:37:06;11.27;;;9.77;;
9304;SDS011;4690;52.422;13.486;2023-06-24T07:39:32;13.52;;;9.63;;
9304;SDS011;4690;52.422;13.486;2023-06-24T07:41:57;11.75;;;9.55;;
9304;SDS011;4690;52.422;13.486;2023-06-24T07:44:23;13.35;;;10.32;;
9304;SDS011;4690;52.422;13.486;2023-06-24T07:46:49;11.27;;;9.88;;
9304;SDS011;4690;52.422;13.486;2023-06-24T07:49:16;9.55;;;8.65;;
9304;SDS011;4690;52.422;13.486;2023-06-24T07:51:43;10.70;;;8.90;;
9304;SDS011;4690;52.422;13.486;2023-06-24T07:54:10;8.20;;;7.40;;
9304;SDS011;4690;52.422;13.486;2023-06-24T07:56:36;8.63;;;7.82;;
9304;SDS011;4690;52.422;13.486;2023-06-24T07:59:02;8.82;;;8.02;;
9304;SDS011;4690;52.422;13.486;2023-06-24T08:01:28;9.30;;;8.50;;
9304;SDS011;4690;52.422;13.486;2023-06-24T08:03:54;8.52;;;7.45;;
9304;SDS011;4690;52.422;13.486;2023-06-24T08:06:20;8.32;;;7.47;;
9304;SDS011;4690;52.422;13.486;2023-06-24T08:08:45;9.18;;;7.78;;
9304;SDS011;4690;52.422;13.486;2023-06-24T08:11:11;8.02;;;7.13;;
9304;SDS011;4690;52.422;13.486;2023-06-24T08:13:38;7.93;;;7.18;;
9304;SDS011;4690;52.422;13.486;2023-06-24T08:16:05;7.55;;;6.88;;
9304;SDS011;4690;52.422;13.486;2023-06-24T08:18:31;6.93;;;6.22;;
9304;SDS011;4690;52.422;13.486;2023-06-24T08:20:57;7.68;;;6.88;;
9304;SDS011;4690;52.422;13.486;2023-06-24T08:23:23;6.63;;;6.00;;
9304;SDS011;4690;52.422;13.486;2023-06-24T08:25:49;6.30;;;5.70;;
9304;SDS011;4690;52.422;13.486;2023-06-24T08:28:14;7.47;;;5.78;;
9304;SDS011;4690;52.422;13.486;2023-06-24T08:30:40;6.40;;;5.80;;
9304;SDS011;4690;52.422;13.486;2023-06-24T08:33:06;6.00;;;5.40;;
9304;SDS011;4690;52.422;13.486;2023-06-24T08:35:32;6.28;;;5.30;;
9304;SDS011;4690;52.422;13.486;2023-06-24T08:37:57;5.82;;;5.30;;
9304;SDS011;4690;52.422;13.486;2023-06-24T08:40:23;6.97;;;6.22;;
9304;SDS011;4690;52.422;13.486;2023-06-24T08:42:49;6.47;;;5.82;;
9304;SDS011;4690;52.422;13.486;2023-06-24T08:45:14;9.95;;;6.30;;
9304;SDS011;4690;52.422;13.486;2023-06-24T08:47:40;7.88;;;6.60;;
9304;SDS011;4690;52.422;13.486;2023-06-24T08:50:08;7.82;;;6.47;;
9304;SDS011;4690;52.422;13.486;2023-06-24T08:52:38;6.40;;;5.80;;
9304;SDS011;4690;52.422;13.486;2023-06-24T08:55:16;6.78;;;5.75;;
9304;SDS011;4690;52.422;13.486;2023-06-24T08:57:47;6.20;;;5.60;;
9304;SDS011;4690;52.422;13.486;2023-06-24T09:00:13;6.25;;;5.63;;
9304;SDS011;4690;52.422;13.486;2023-06-24T09:02:39;7.68;;;6.20;;
9304;SDS011;4690;52.422;13.486;2023-06-24T09:05:05;7.30;;;6.10;;
9304;SDS011;4690;52.422;13.486;2023-06-24T09:07:33;5.88;;;5.35;;
9304;SDS011;4690;52.422;13.486;2023-06-24T09:09:59;5.53;;;5.07;;
9304;SDS011;4690;52.422;13.486;2023-06-24T09:12:25;5.75;;;5.22;;
9304;SDS011;4690;52.422;13.486;2023-06-24T09:14:51;6.03;;;5.43;;
9304;SDS011;4690;52.422;13.486;2023-06-24T09:17:18;7.78;;;5.97;;
9304;SDS011;4690;52.422;13.486;2023-06-24T09:19:47;7.57;;;5.28;;
9304;SDS011;4690;52.422;13.486;2023-06-24T09:22:14;5.90;;;5.40;;
9304;SDS011;4690;52.422;13.486;2023-06-24T09:24:44;6.13;;;5.53;;
9304;SDS011;4690;52.422;13.486;2023-06-24T09:27:12;5.75;;;5.10;;
9304;SDS011;4690;52.422;13.486;2023-06-24T09:29:46;6.13;;;5.53;;
9304;SDS011;4690;52.422;13.486;2023-06-24T09:32:13;5.40;;;4.85;;
9304;SDS011;4690;52.422;13.486;2023-06-24T09:34:39;5.88;;;5.38;;
9304;SDS011;4690;52.422;13.486;2023-06-24T09:37:04;6.63;;;5.22;;
9304;SDS011;4690;52.422;13.486;2023-06-24T09:39:37;7.10;;;5.75;;
9304;SDS011;4690;52.422;13.486;2023-06-24T09:42:05;7.07;;;5.28;;
9304;SDS011;4690;52.422;13.486;2023-06-24T09:44:32;8.55;;;4.90;;
9304;SDS011;4690;52.422;13.486;2023-06-24T09:46:58;7.55;;;5.43;;
9304;SDS011;4690;52.422;13.486;2023-06-24T09:49:24;6.05;;;5.47;;
9304;SDS011;4690;52.422;13.486;2023-06-24T09:51:54;7.65;;;5.20;;
9304;SDS011;4690;52.422;13.486;2023-06-24T09:54:25;6.82;;;5.05;;
9304;SDS011;4690;52.422;13.486;2023-06-24T09:56:53;5.40;;;4.90;;
9304;SDS011;4690;52.422;13.486;2023-06-24T09:59:24;5.78;;;5.18;;
9304;SDS011;4690;52.422;13.486;2023-06-24T10:01:53;6.15;;;5.22;;
9304;SDS011;4690;52.422;13.486;2023-06-24T10:04:21;5.68;;;5.18;;
9304;SDS011;4690;52.422;13.486;2023-06-24T10:06:47;7.60;;;5.00;;
9304;SDS011;4690;52.422;13.486;2023-06-24T10:09:14;5.07;;;4.57;;
9304;SDS011;4690;52.422;13.486;2023-06-24T10:11:43;5.00;;;4.60;;
9304;SDS011;4690;52.422;13.486;2023-06-24T10:14:10;5.15;;;4.57;;
9304;SDS011;4690;52.422;13.486;2023-06-24T10:16:37;5.03;;;4.53;;
9304;SDS011;4690;52.422;13.486;2023-06-24T10:19:03;4.95;;;4.55;;
9304;SDS011;4690;52.422;13.486;2023-06-24T10:21:46;5.68;;;4.95;;
9304;SDS011;4690;52.422;13.486;2023-06-24T10:24:29;6.20;;;4.80;;
9304;SDS011;4690;52.422;13.486;2023-06-24T10:27:04;6.75;;;4.70;;
9304;SDS011;4690;52.422;13.486;2023-06-24T10:29:39;5.00;;;4.20;;
9304;SDS011;4690;52.422;13.486;2023-06-24T10:32:09;6.30;;;4.18;;
9304;SDS011;4690;52.422;13.486;2023-06-24T10:37:12;5.72;;;4.15;;
9304;SDS011;4690;52.422;13.486;2023-06-24T10:39:45;4.68;;;4.28;;
9304;SDS011;4690;52.422;13.486;2023-06-24T10:47:38;4.32;;;3.92;;
9304;SDS011;4690;52.422;13.486;2023-06-24T10:50:15;5.07;;;4.10;;
9304;SDS011;4690;52.422;13.486;2023-06-24T10:52:46;5.57;;;4.35;;
9304;SDS011;4690;52.422;13.486;2023-06-24T10:55:14;6.15;;;4.60;;
9304;SDS011;4690;52.422;13.486;2023-06-24T10:57:42;4.90;;;4.40;;
9304;SDS011;4690;52.422;13.486;2023-06-24T11:00:10;6.15;;;5.50;;
9304;SDS011;4690;52.422;13.486;2023-06-24T11:02:37;11.35;;;4.70;;
9304;SDS011;4690;52.422;13.486;2023-06-24T11:05:04;5.05;;;4.55;;
9304;SDS011;4690;52.422;13.486;2023-06-24T11:07:34;5.80;;;4.45;;
9304;SDS011;4690;52.422;13.486;2023-06-24T11:10:21;9.07;;;4.60;;
9304;SDS011;4690;52.422;13.486;2023-06-24T11:12:46;4.57;;;4.00;;
9304;SDS011;4690;52.422;13.486;2023-06-24T11:15:13;5.07;;;4.20;;
9304;SDS011;4690;52.422;13.486;2023-06-24T11:17:39;4.85;;;4.30;;
9304;SDS011;4690;52.422;13.486;2023-06-24T11:20:06;4.70;;;4.25;;
9304;SDS011;4690;52.422;13.486;2023-06-24T11:22:37;5.80;;;4.57;;
9304;SDS011;4690;52.422;13.486;2023-06-24T11:25:05;5.72;;;4.20;;
9304;SDS011;4690;52.422;13.486;2023-06-24T11:27:31;4.70;;;4.30;;
9304;SDS011;4690;52.422;13.486;2023-06-24T11:29:58;4.75;;;4.05;;
9304;SDS011;4690;52.422;13.486;2023-06-24T11:32:37;6.80;;;4.20;;
9304;SDS011;4690;52.422;13.486;2023-06-24T11:35:05;4.90;;;4.50;;
9304;SDS011;4690;52.422;13.486;2023-06-24T11:37:33;5.30;;;4.78;;
9304;SDS011;4690;52.422;13.486;2023-06-24T11:40:06;5.18;;;4.25;;
9304;SDS011;4690;52.422;13.486;2023-06-24T11:42:37;8.52;;;4.85;;
9304;SDS011;4690;52.422;13.486;2023-06-24T11:45:06;7.50;;;4.65;;
9304;SDS011;4690;52.422;13.486;2023-06-24T11:47:34;4.63;;;4.22;;
9304;SDS011;4690;52.422;13.486;2023-06-24T11:50:03;4.90;;;4.47;;
9304;SDS011;4690;52.422;13.486;2023-06-24T11:52:32;5.32;;;4.50;;
9304;SDS011;4690;52.422;13.486;2023-06-24T11:55:01;4.32;;;4.03;;
9304;SDS011;4690;52.422;13.486;2023-06-24T11:57:49;5.13;;;4.28;;
9304;SDS011;4690;52.422;13.486;2023-06-24T12:00:22;4.63;;;4.22;;
9304;SDS011;4690;52.422;13.486;2023-06-24T12:02:53;7.18;;;4.10;;
9304;SDS011;4690;52.422;13.486;2023-06-24T12:05:31;4.68;;;4.38;;
9304;SDS011;4690;52.422;13.486;2023-06-24T12:08:00;5.20;;;4.18;;
9304;SDS011;4690;52.422;13.486;2023-06-24T12:10:29;5.70;;;4.18;;
9304;SDS011;4690;52.422;13.486;2023-06-24T12:12:59;4.38;;;4.00;;
9304;SDS011;4690;52.422;13.486;2023-06-24T12:15:30;4.18;;;3.80;;
9304;SDS011;4690;52.422;13.486;2023-06-24T12:17:57;4.18;;;3.78;;
9304;SDS011;4690;52.422;13.486;2023-06-24T12:20:26;4.22;;;3.83;;
9304;SDS011;4690;52.422;13.486;2023-06-24T12:22:53;4.55;;;4.20;;
9304;SDS011;4690;52.422;13.486;2023-06-24T12:25:19;6.65;;;4.30;;
9304;SDS011;4690;52.422;13.486;2023-06-24T12:27:44;6.72;;;4.07;;
9304;SDS011;4690;52.422;13.486;2023-06-24T12:30:11;6.13;;;4.47;;
9304;SDS011;4690;52.422;13.486;2023-06-24T12:32:37;4.50;;;4.10;;
9304;SDS011;4690;52.422;13.486;2023-06-24T12:35:04;4.97;;;3.90;;
9304;SDS011;4690;52.422;13.486;2023-06-24T12:37:31;5.80;;;4.25;;
9304;SDS011;4690;52.422;13.486;2023-06-24T12:39:58;4.53;;;4.13;;
9304;SDS011;4690;52.422;13.486;2023-06-24T12:42:25;4.10;;;3.70;;
9304;SDS011;4690;52.422;13.486;2023-06-24T12:44:51;4.40;;;4.00;;
9304;SDS011;4690;52.422;13.486;2023-06-24T12:47:18;4.85;;;4.22;;
9304;SDS011;4690;52.422;13.486;2023-06-24T12:49:45;8.05;;;4.47;;
9304;SDS011;4690;52.422;13.486;2023-06-24T12:52:12;4.68;;;4.28;;
9304;SDS011;4690;52.422;13.486;2023-06-24T12:54:39;4.43;;;4.03;;
9304;SDS011;4690;52.422;13.486;2023-06-24T12:57:05;4.75;;;4.00;;
9304;SDS011;4690;52.422;13.486;2023-06-24T12:59:31;4.60;;;4.20;;
9304;SDS011;4690;52.422;13.486;2023-06-24T13:01:57;5.03;;;4.50;;
9304;SDS011;4690;52.422;13.486;2023-06-24T13:04:23;5.28;;;4.35;;
9304;SDS011;4690;52.422;13.486;2023-06-24T13:06:50;10.20;;;4.50;;
9304;SDS011;4690;52.422;13.486;2023-06-24T13:09:17;5.20;;;4.70;;
9304;SDS011;4690;52.422;13.486;2023-06-24T13:11:43;5.80;;;4.30;;
9304;SDS011;4690;52.422;13.486;2023-06-24T13:14:08;6.22;;;4.60;;
9304;SDS011;4690;52.422;13.486;2023-06-24T13:16:35;7.63;;;5.10;;
9304;SDS011;4690;52.422;13.486;2023-06-24T13:19:01;6.82;;;5.47;;
9304;SDS011;4690;52.422;13.486;2023-06-24T13:21:28;5.07;;;4.50;;
9304;SDS011;4690;52.422;13.486;2023-06-24T13:23:54;4.07;;;3.75;;
9304;SDS011;4690;52.422;13.486;2023-06-24T13:26:20;5.00;;;4.60;;
9304;SDS011;4690;52.422;13.486;2023-06-24T13:28:46;4.70;;;4.20;;
9304;SDS011;4690;52.422;13.486;2023-06-24T13:31:14;7.38;;;4.53;;
9304;SDS011;4690;52.422;13.486;2023-06-24T13:33:40;4.50;;;4.10;;
9304;SDS011;4690;52.422;13.486;2023-06-24T13:36:06;5.18;;;4.32;;
9304;SDS011;4690;52.422;13.486;2023-06-24T13:38:37;4.95;;;4.07;;
9304;SDS011;4690;52.422;13.486;2023-06-24T13:41:02;4.95;;;4.55;;
9304;SDS011;4690;52.422;13.486;2023-06-24T13:43:28;8.15;;;4.30;;
9304;SDS011;4690;52.422;13.486;2023-06-24T13:45:54;4.90;;;4.50;;
9304;SDS011;4690;52.422;13.486;2023-06-24T13:48:19;5.15;;;4.40;;
9304;SDS011;4690;52.422;13.486;2023-06-24T13:50:45;6.40;;;4.88;;
9304;SDS011;4690;52.422;13.486;2023-06-24T13:53:11;5.10;;;4.60;;
9304;SDS011;4690;52.422;13.486;2023-06-24T13:55:37;8.25;;;4.82;;
9304;SDS011;4690;52.422;13.486;2023-06-24T13:58:03;5.60;;;5.07;;
9304;SDS011;4690;52.422;13.486;2023-06-24T14:00:28;5.70;;;5.00;;
9304;SDS011;4690;52.422;13.486;2023-06-24T14:02:54;5.25;;;4.60;;
9304;SDS011;4690;52.422;13.486;2023-06-24T14:05:20;5.18;;;4.75;;
9304;SDS011;4690;52.422;13.486;2023-06-24T14:07:46;5.05;;;4.55;;
9304;SDS011;4690;52.422;13.486;2023-06-24T14:10:12;5.18;;;4.78;;
9304;SDS011;4690;52.422;13.486;2023-06-24T14:12:38;5.38;;;4.80;;
9304;SDS011;4690;52.422;13.486;2023-06-24T14:15:07;4.90;;;4.43;;
9304;SDS011;4690;52.422;13.486;2023-06-24T14:17:34;4.88;;;4.38;;
9304;SDS011;4690;52.422;13.486;2023-06-24T14:20:00;4.70;;;4.30;;
9304;SDS011;4690;52.422;13.486;2023-06-24T14:22:26;5.50;;;4.85;;
9304;SDS011;4690;52.422;13.486;2023-06-24T14:24:51;7.93;;;4.65;;
9304;SDS011;4690;52.422;13.486;2023-06-24T14:27:17;4.85;;;4.45;;
9304;SDS011;4690;52.422;13.486;2023-06-24T14:29:43;4.47;;;4.07;;
9304;SDS011;4690;52.422;13.486;2023-06-24T14:32:09;6.63;;;4.47;;
9304;SDS011;4690;52.422;13.486;2023-06-24T14:34:35;6.53;;;4.50;;
9304;SDS011;4690;52.422;13.486;2023-06-24T14:37:00;4.82;;;4.30;;
9304;SDS011;4690;52.422;13.486;2023-06-24T14:39:26;6.03;;;4.32;;
9304;SDS011;4690;52.422;13.486;2023-06-24T14:41:53;6.07;;;4.50;;
9304;SDS011;4690;52.422;13.486;2023-06-24T14:44:19;4.93;;;4.53;;
9304;SDS011;4690;52.422;13.486;2023-06-24T14:46:44;5.47;;;4.43;;
9304;SDS011;4690;52.422;13.486;2023-06-24T14:49:10;5.10;;;4.25;;
9304;SDS011;4690;52.422;13.486;2023-06-24T14:51:36;6.15;;;4.70;;
9304;SDS011;4690;52.422;13.486;2023-06-24T14:54:02;5.30;;;4.40;;
9304;SDS011;4690;52.422;13.486;2023-06-24T14:56:27;5.28;;;4.60;;
9304;SDS011;4690;52.422;13.486;2023-06-24T14:58:53;4.95;;;4.55;;
9304;SDS011;4690;52.422;13.486;2023-06-24T15:01:19;4.72;;;4.32;;
9304;SDS011;4690;52.422;13.486;2023-06-24T15:03:45;4.88;;;4.47;;
9304;SDS011;4690;52.422;13.486;2023-06-24T15:06:11;5.25;;;4.78;;
9304;SDS011;4690;52.422;13.486;2023-06-24T15:08:36;4.50;;;4.10;;
9304;SDS011;4690;52.422;13.486;2023-06-24T15:11:02;9.32;;;4.40;;